メインページ
METAR-TAF:

METAR-TAF

空港 :

アタテュルク国際空港

イスタンブル-アタテュルク, トルコ

緯度: 40-58N, 経度: 028-49E, 海抜: 48m

現時点の気象観測

当レポートは26分前の08:50(UTC)に作成
北東の風 11kt、北/北西からの間で変化する
気温 29°C
湿度 55%
気圧 1015 hPa
視程10km以上
高度3500ftの雲は散在している

METAR: LTBA 200850Z 04011KT 340V090 9999 SCT035 29/19 Q1015 NOSIG RMK RWY17L 02013KT RWY05 04011KT 360V090 RWY23 05012KT 020V080

時間: 12:16 (09:16 UTC)

予報

当レポートは4時間36分前の04:40(UTC)に作成
予報は20日の 06時(UTC)から 21日の 12時(UTC)まで有効
北/北東の風 9kt
視程10km以上
高度3500ftの雲は散在している
20日の 07時(UTC)から 20日の 10時(UTC)まで一時的に
高度2000ftの雲はほとんどない, 塔状積雲.
高度3000ftの千切れ雲あり
20日の 12時(UTC)から 20日の 15時(UTC)まで一時的に
北/北東の風 15kt、最大25ktの突風を伴う
20日の 13時(UTC)から 20日の 16時(UTC)まで徐々に
視程10km以上
1,500メートル以下は雲なし、積乱雲なし

TAF: LTBA 200440Z 2006/2112 03009KT 9999 SCT035 TEMPO 2007/2010 FEW020TCU BKN030 TEMPO 2012/2015 03015G25KT BECMG 2013/2016 CAVOK

4,000以上の空港の気象観測と天気予報(METAR報とTAF報)

利用可能な観測所は地図上に黄色い丸と赤い丸で示す。

丸の上にカーソルを重ねると観測所名を参照できる。

次にクリックすると気象観測と天気予報を参照できる。

マップの切り替え:黒色「×」印の緑ボタンをクリックして拡大、「-」印の緑ボタンをクリックして縮小、緑色の三角印をクリックして隣りの地図に切り替え


METAR-TAF: